createdAt,value
2017-10-10T00:00:37.966Z,10.80
2017-10-10T00:03:05.435Z,10.80
2017-10-10T00:05:32.877Z,10.70
2017-10-10T00:08:00.333Z,10.70
2017-10-10T00:10:27.788Z,10.80
2017-10-10T00:12:55.254Z,10.90
2017-10-10T00:15:22.727Z,10.80
2017-10-10T00:17:50.188Z,10.80
2017-10-10T00:20:17.743Z,10.70
2017-10-10T00:22:45.209Z,10.60
2017-10-10T00:25:12.658Z,10.60
2017-10-10T00:27:40.123Z,10.50
2017-10-10T00:30:07.575Z,10.40
2017-10-10T00:32:35.030Z,10.40
2017-10-10T00:35:02.485Z,10.40
2017-10-10T00:37:29.955Z,10.30
2017-10-10T00:39:57.410Z,10.20
2017-10-10T00:42:24.877Z,10.20
2017-10-10T00:44:53.119Z,10.00
2017-10-10T00:47:20.679Z,10.00
2017-10-10T00:49:48.137Z,10.00
2017-10-10T00:52:15.598Z,9.90
2017-10-10T00:54:43.051Z,9.80
2017-10-10T00:57:10.500Z,9.70
2017-10-10T00:59:38.062Z,9.60
2017-10-10T01:02:05.518Z,9.60
2017-10-10T01:04:32.974Z,9.50
2017-10-10T01:07:00.431Z,9.40
2017-10-10T01:09:30.219Z,9.30
2017-10-10T01:11:57.682Z,9.40
2017-10-10T01:14:25.131Z,9.40
2017-10-10T01:16:52.590Z,9.40
2017-10-10T01:19:20.059Z,9.40
2017-10-10T01:21:47.517Z,9.40
2017-10-10T01:24:14.982Z,9.40
2017-10-10T01:26:42.438Z,9.30
2017-10-10T01:29:09.999Z,9.30
2017-10-10T01:31:37.574Z,9.20
2017-10-10T01:34:05.035Z,9.10
2017-10-10T01:36:33.293Z,8.90
2017-10-10T01:39:00.853Z,8.90
2017-10-10T01:41:28.309Z,9.00
2017-10-10T01:43:55.869Z,9.10
2017-10-10T01:46:23.330Z,9.10
2017-10-10T01:48:50.790Z,9.20
2017-10-10T01:51:18.257Z,9.20
2017-10-10T01:53:45.799Z,9.30
2017-10-10T01:56:13.260Z,9.50
2017-10-10T01:58:40.810Z,9.60
2017-10-10T02:01:08.265Z,9.50
2017-10-10T02:03:35.722Z,9.50
2017-10-10T02:06:03.181Z,9.30
2017-10-10T02:08:30.638Z,9.30
2017-10-10T02:10:58.103Z,9.30
2017-10-10T02:13:25.562Z,9.30
2017-10-10T02:15:53.030Z,9.30
2017-10-10T02:18:21.357Z,9.30
2017-10-10T02:20:48.814Z,9.20
2017-10-10T02:23:16.254Z,9.20
2017-10-10T02:25:43.761Z,9.10
2017-10-10T02:28:11.214Z,9.00
2017-10-10T02:30:38.669Z,9.00
2017-10-10T02:33:06.143Z,9.10
2017-10-10T02:35:33.617Z,9.20
2017-10-10T02:38:01.833Z,9.20
2017-10-10T02:40:29.321Z,9.20
2017-10-10T02:42:56.774Z,9.20
2017-10-10T02:45:24.226Z,9.30
2017-10-10T02:47:51.688Z,9.10
2017-10-10T02:50:19.152Z,9.10
2017-10-10T02:52:46.617Z,9.10
2017-10-10T02:55:14.069Z,9.10
2017-10-10T02:57:41.530Z,8.90
2017-10-10T03:00:08.982Z,8.90
2017-10-10T03:02:36.437Z,8.90
2017-10-10T03:05:03.986Z,8.90
2017-10-10T03:07:31.457Z,9.00
2017-10-10T03:09:59.004Z,9.10
2017-10-10T03:12:26.455Z,9.10
2017-10-10T03:14:53.906Z,9.20
2017-10-10T03:17:21.370Z,9.20
2017-10-10T03:19:48.814Z,9.10
2017-10-10T03:22:16.273Z,9.10
2017-10-10T03:24:43.737Z,9.00
2017-10-10T03:27:11.194Z,8.90
2017-10-10T03:29:38.641Z,8.90
2017-10-10T03:32:06.122Z,8.80
2017-10-10T03:34:33.570Z,8.80
2017-10-10T03:37:01.020Z,8.70
2017-10-10T03:39:28.469Z,8.60
2017-10-10T03:41:55.926Z,8.50
2017-10-10T03:44:23.382Z,8.50
2017-10-10T03:46:53.777Z,8.50
2017-10-10T03:49:21.249Z,8.40
2017-10-10T03:51:48.738Z,8.40
2017-10-10T03:54:16.202Z,8.40
2017-10-10T03:56:43.657Z,8.50
2017-10-10T03:59:11.124Z,8.50
2017-10-10T04:01:38.574Z,8.60
2017-10-10T04:04:06.031Z,8.70
2017-10-10T04:06:33.478Z,9.00
2017-10-10T04:09:00.942Z,8.90
2017-10-10T04:11:28.403Z,8.80
2017-10-10T04:13:55.946Z,8.90
2017-10-10T04:16:23.403Z,8.80
2017-10-10T04:18:50.857Z,8.80
2017-10-10T04:21:18.313Z,8.80
2017-10-10T04:23:45.758Z,8.80
2017-10-10T04:26:13.224Z,8.80
2017-10-10T04:28:40.670Z,8.80
2017-10-10T04:31:08.123Z,8.90
2017-10-10T04:33:35.607Z,8.90
2017-10-10T04:36:03.059Z,8.90
2017-10-10T04:38:30.513Z,8.90
2017-10-10T04:40:58.620Z,8.90
2017-10-10T04:43:26.863Z,9.10
2017-10-10T04:45:54.317Z,9.00
2017-10-10T04:48:21.843Z,9.10
2017-10-10T04:50:49.302Z,9.10
2017-10-10T04:53:16.757Z,9.10
2017-10-10T04:55:44.225Z,9.30
2017-10-10T04:58:11.674Z,9.30
2017-10-10T05:00:39.134Z,9.30
2017-10-10T05:03:06.585Z,9.20
2017-10-10T05:05:34.042Z,9.20
2017-10-10T05:08:01.494Z,9.30
2017-10-10T05:10:28.963Z,9.50
2017-10-10T05:12:56.412Z,9.40
2017-10-10T05:15:23.898Z,9.30
2017-10-10T05:17:51.355Z,9.40
2017-10-10T05:20:18.814Z,9.30
2017-10-10T05:22:46.473Z,9.30
2017-10-10T05:25:13.938Z,9.40
2017-10-10T05:27:42.925Z,9.40
2017-10-10T05:30:10.381Z,9.40
2017-10-10T05:32:37.951Z,9.50
2017-10-10T05:35:05.413Z,9.50
2017-10-10T05:37:32.866Z,9.70
2017-10-10T05:40:00.319Z,9.70
2017-10-10T05:42:27.773Z,9.70
2017-10-10T05:44:55.226Z,9.80
2017-10-10T05:47:22.682Z,9.90
2017-10-10T05:49:50.136Z,9.90
2017-10-10T05:52:17.594Z,9.80
2017-10-10T05:54:45.053Z,10.00
2017-10-10T05:57:12.506Z,10.10
2017-10-10T05:59:39.949Z,10.20
2017-10-10T06:02:07.424Z,10.30
2017-10-10T06:04:34.882Z,10.40
2017-10-10T06:07:02.341Z,10.50
2017-10-10T06:09:29.798Z,10.50
2017-10-10T06:11:57.266Z,10.60
2017-10-10T06:14:24.713Z,10.50
2017-10-10T06:16:52.186Z,10.60
2017-10-10T06:19:19.717Z,10.60
2017-10-10T06:21:47.176Z,10.60
2017-10-10T06:24:14.634Z,10.60
2017-10-10T06:26:42.194Z,10.60
2017-10-10T06:29:09.642Z,10.60
2017-10-10T06:31:37.110Z,10.60
2017-10-10T06:34:04.566Z,10.80
2017-10-10T06:36:32.034Z,10.90
2017-10-10T06:38:59.493Z,11.00
2017-10-10T06:41:27.040Z,11.00
2017-10-10T06:43:54.498Z,11.20
2017-10-10T06:46:21.953Z,11.20
2017-10-10T06:48:49.425Z,11.20
2017-10-10T06:51:16.886Z,11.20
2017-10-10T06:53:44.346Z,11.20
2017-10-10T06:56:11.786Z,11.20
2017-10-10T06:58:39.340Z,11.30
2017-10-10T07:01:06.791Z,11.40
2017-10-10T07:03:34.255Z,11.40
2017-10-10T07:06:01.806Z,11.30
2017-10-10T07:08:29.257Z,11.30
2017-10-10T07:10:56.714Z,11.40
2017-10-10T07:13:24.175Z,11.40
2017-10-10T07:15:51.625Z,11.50
2017-10-10T07:18:19.083Z,11.60
2017-10-10T07:20:46.539Z,11.70
2017-10-10T07:23:14.102Z,11.60
2017-10-10T07:25:41.555Z,11.70
2017-10-10T07:28:09.017Z,11.70
2017-10-10T07:30:36.478Z,11.80
2017-10-10T07:33:03.930Z,11.90
2017-10-10T07:35:31.385Z,12.00
2017-10-10T07:37:58.947Z,12.10
2017-10-10T07:40:26.397Z,12.20
2017-10-10T07:42:53.844Z,12.40
2017-10-10T07:45:21.305Z,12.50
2017-10-10T07:47:48.757Z,12.70
2017-10-10T07:50:16.235Z,12.80
2017-10-10T07:52:43.685Z,12.90
2017-10-10T07:55:11.144Z,12.90
2017-10-10T07:57:38.594Z,12.90
2017-10-10T08:00:06.158Z,12.90
2017-10-10T08:02:33.611Z,13.00
2017-10-10T08:05:01.067Z,13.00
2017-10-10T08:07:28.513Z,13.00
2017-10-10T08:09:55.990Z,13.10
2017-10-10T08:12:23.451Z,13.10
2017-10-10T08:14:50.913Z,13.20
2017-10-10T08:17:18.364Z,13.60
2017-10-10T08:19:45.914Z,13.80
2017-10-10T08:22:13.371Z,14.10
2017-10-10T08:24:40.846Z,14.00
2017-10-10T08:27:08.299Z,13.70
2017-10-10T08:29:35.754Z,13.70
2017-10-10T08:32:03.211Z,13.80
2017-10-10T08:34:30.656Z,13.70
2017-10-10T08:36:58.119Z,13.70
2017-10-10T08:39:25.553Z,13.70
2017-10-10T08:41:53.026Z,13.60
2017-10-10T08:44:20.581Z,13.60
2017-10-10T08:46:48.037Z,13.80
2017-10-10T08:49:15.494Z,13.70
2017-10-10T08:51:42.961Z,13.70
2017-10-10T08:54:10.405Z,13.70
2017-10-10T08:56:37.878Z,13.80
2017-10-10T08:59:05.331Z,13.90
2017-10-10T09:01:32.789Z,13.90
2017-10-10T09:04:00.247Z,13.90
2017-10-10T09:06:27.700Z,13.90
2017-10-10T09:08:55.165Z,13.90
2017-10-10T09:11:22.621Z,14.10
2017-10-10T09:13:50.073Z,14.30
2017-10-10T09:16:17.545Z,14.60
2017-10-10T09:18:44.992Z,14.80
2017-10-10T09:21:12.450Z,15.10
2017-10-10T09:23:39.905Z,15.10
2017-10-10T09:26:07.362Z,15.10
2017-10-10T09:28:34.822Z,14.90
2017-10-10T09:31:02.285Z,14.80
2017-10-10T09:33:29.744Z,14.90
2017-10-10T09:35:57.186Z,15.00
2017-10-10T09:38:24.643Z,15.30
2017-10-10T09:40:52.101Z,15.40
2017-10-10T09:43:19.557Z,15.10
2017-10-10T09:45:47.102Z,15.00
2017-10-10T09:48:14.566Z,15.20
2017-10-10T09:50:42.017Z,15.20
2017-10-10T09:53:09.586Z,15.40
2017-10-10T09:55:37.046Z,15.40
2017-10-10T09:58:05.269Z,15.40
2017-10-10T10:00:32.727Z,15.40
2017-10-10T10:03:00.187Z,15.50
2017-10-10T10:05:27.644Z,15.40
2017-10-10T10:07:55.101Z,15.40
2017-10-10T10:10:22.589Z,15.60
2017-10-10T10:12:50.045Z,15.50
2017-10-10T10:15:17.510Z,15.30
2017-10-10T10:17:44.963Z,15.20
2017-10-10T10:20:12.426Z,15.10
2017-10-10T10:22:39.878Z,15.00
2017-10-10T10:25:07.438Z,14.80
2017-10-10T10:27:34.902Z,14.90
2017-10-10T10:30:02.454Z,15.00
2017-10-10T10:32:29.919Z,15.10
2017-10-10T10:34:57.370Z,15.00
2017-10-10T10:37:24.834Z,14.90
2017-10-10T10:39:52.292Z,15.00
2017-10-10T10:42:19.743Z,14.80
2017-10-10T10:44:47.298Z,14.70
2017-10-10T10:47:14.737Z,14.70
2017-10-10T10:49:42.196Z,14.70
2017-10-10T10:52:09.651Z,14.80
2017-10-10T10:54:37.105Z,14.80
2017-10-10T10:57:04.557Z,14.70
2017-10-10T10:59:32.029Z,14.80
2017-10-10T11:01:59.478Z,14.80
2017-10-10T11:04:26.942Z,14.90
2017-10-10T11:06:54.398Z,14.90
2017-10-10T11:09:21.853Z,14.90
2017-10-10T11:11:49.315Z,14.90
2017-10-10T11:14:16.765Z,15.00
2017-10-10T11:16:44.226Z,15.00
2017-10-10T11:19:11.682Z,14.90
2017-10-10T11:21:39.139Z,14.90
2017-10-10T11:24:07.943Z,14.80
2017-10-10T11:26:35.556Z,15.00
2017-10-10T11:29:03.002Z,15.00
2017-10-10T11:31:30.476Z,15.00
2017-10-10T11:33:57.930Z,15.10
2017-10-10T11:36:25.397Z,15.30
2017-10-10T11:38:54.126Z,15.40
2017-10-10T11:41:22.378Z,15.30
2017-10-10T11:43:49.826Z,15.30
2017-10-10T11:46:17.390Z,15.00
2017-10-10T11:48:44.844Z,14.90
2017-10-10T11:51:12.405Z,14.90
2017-10-10T11:53:40.935Z,15.00
2017-10-10T11:56:09.168Z,14.90
2017-10-10T11:58:36.617Z,14.90
2017-10-10T12:01:04.078Z,15.00
2017-10-10T12:03:31.638Z,15.00
2017-10-10T12:05:59.095Z,14.90
2017-10-10T12:08:26.541Z,14.80
2017-10-10T12:10:54.022Z,14.80
2017-10-10T12:13:21.570Z,14.70
2017-10-10T12:15:49.021Z,14.80
2017-10-10T12:18:16.584Z,14.70
2017-10-10T12:20:44.035Z,14.50
2017-10-10T12:23:11.506Z,14.50
2017-10-10T12:25:38.949Z,14.30
2017-10-10T12:28:06.513Z,14.40
2017-10-10T12:30:36.898Z,14.40
2017-10-10T12:33:06.332Z,14.50
2017-10-10T12:35:33.784Z,14.50
2017-10-10T12:38:01.251Z,14.50
2017-10-10T12:40:28.710Z,14.40
2017-10-10T12:42:56.490Z,14.40
2017-10-10T12:45:24.735Z,14.30
2017-10-10T12:47:52.202Z,14.30
2017-10-10T12:50:19.657Z,14.30
2017-10-10T12:52:47.118Z,14.30
2017-10-10T12:55:14.566Z,14.10
2017-10-10T12:57:42.029Z,14.10
2017-10-10T13:00:09.505Z,13.90
2017-10-10T13:02:37.747Z,13.90
2017-10-10T13:05:05.328Z,13.90
2017-10-10T13:07:32.840Z,14.00
2017-10-10T13:10:00.342Z,13.90
2017-10-10T13:12:27.860Z,13.80
2017-10-10T13:14:55.360Z,13.80
2017-10-10T13:17:22.829Z,13.70
2017-10-10T13:19:51.078Z,13.70
2017-10-10T13:22:20.134Z,13.70
2017-10-10T13:24:47.594Z,13.80
2017-10-10T13:27:15.049Z,13.80
2017-10-10T13:29:42.504Z,13.80
2017-10-10T13:32:09.999Z,13.70
2017-10-10T13:34:37.457Z,13.70
2017-10-10T13:37:04.916Z,13.80
2017-10-10T13:39:32.386Z,13.70
2017-10-10T13:41:59.842Z,13.60
2017-10-10T13:44:27.303Z,13.70
2017-10-10T13:46:54.748Z,13.70
2017-10-10T13:49:22.227Z,13.80
2017-10-10T13:51:49.661Z,13.80
2017-10-10T13:54:17.126Z,13.80
2017-10-10T13:56:44.570Z,14.00
2017-10-10T13:59:12.031Z,14.00
2017-10-10T14:01:39.478Z,14.00
2017-10-10T14:04:06.946Z,13.80
2017-10-10T14:06:35.221Z,13.80
2017-10-10T14:09:02.679Z,13.80
2017-10-10T14:11:30.130Z,13.70
2017-10-10T14:13:57.602Z,13.70
2017-10-10T14:16:25.056Z,13.70
2017-10-10T14:18:52.519Z,13.80
2017-10-10T14:21:20.742Z,13.90
2017-10-10T14:23:48.202Z,13.90
2017-10-10T14:26:15.650Z,14.00
2017-10-10T14:28:43.106Z,14.20
2017-10-10T14:31:10.557Z,14.30
2017-10-10T14:33:38.031Z,14.40
2017-10-10T14:38:32.948Z,14.40
2017-10-10T14:41:00.416Z,14.40
2017-10-10T14:43:27.973Z,14.30
2017-10-10T14:45:55.433Z,14.50
2017-10-10T14:48:22.886Z,14.50
2017-10-10T14:50:50.351Z,14.60
2017-10-10T14:53:17.802Z,14.60
2017-10-10T14:55:45.266Z,14.60
2017-10-10T14:58:12.717Z,14.70
2017-10-10T15:00:40.181Z,14.70
2017-10-10T15:03:07.641Z,14.70
2017-10-10T15:05:35.097Z,14.80
2017-10-10T15:08:02.549Z,14.70
2017-10-10T15:10:30.015Z,14.70
2017-10-10T15:12:58.282Z,14.80
2017-10-10T15:15:25.742Z,14.80
2017-10-10T15:17:53.201Z,14.80
2017-10-10T15:20:20.660Z,14.70
2017-10-10T15:22:48.218Z,14.80
2017-10-10T15:25:15.677Z,14.70
2017-10-10T15:27:43.226Z,14.50
2017-10-10T15:30:10.689Z,14.60
2017-10-10T15:32:38.134Z,14.50
2017-10-10T15:35:05.594Z,14.60
2017-10-10T15:37:33.045Z,14.50
2017-10-10T15:40:00.509Z,14.40
2017-10-10T15:42:27.967Z,14.40
2017-10-10T15:44:55.438Z,14.40
2017-10-10T15:47:22.890Z,14.50
2017-10-10T15:49:50.437Z,14.50
2017-10-10T15:52:17.896Z,14.60
2017-10-10T15:54:45.353Z,14.50
2017-10-10T15:57:12.921Z,14.30
2017-10-10T15:59:40.373Z,14.30
2017-10-10T16:02:07.924Z,14.30
2017-10-10T16:04:35.373Z,14.30
2017-10-10T16:07:02.842Z,14.20
2017-10-10T16:09:30.289Z,14.20
2017-10-10T16:11:57.749Z,14.20
2017-10-10T16:14:25.197Z,14.10
2017-10-10T16:16:52.666Z,14.00
2017-10-10T16:19:20.122Z,13.90
2017-10-10T16:21:47.590Z,13.90
2017-10-10T16:24:15.042Z,13.90
2017-10-10T16:26:42.509Z,13.90
2017-10-10T16:29:09.958Z,13.90
2017-10-10T16:31:37.431Z,13.90
2017-10-10T16:34:04.874Z,13.80
2017-10-10T16:36:32.385Z,13.60
2017-10-10T16:38:59.879Z,13.40
2017-10-10T16:41:27.331Z,13.30
2017-10-10T16:43:54.790Z,13.10
2017-10-10T16:46:22.245Z,13.00
2017-10-10T16:48:49.710Z,13.00
2017-10-10T16:51:17.162Z,13.00
2017-10-10T16:53:44.626Z,12.90
2017-10-10T16:56:12.081Z,12.90
2017-10-10T16:58:39.550Z,12.80
2017-10-10T17:01:07.009Z,12.70
2017-10-10T17:03:34.461Z,12.60
2017-10-10T17:06:02.691Z,12.60
2017-10-10T17:08:30.149Z,12.60
2017-10-10T17:10:57.600Z,12.60
2017-10-10T17:13:25.090Z,12.60
2017-10-10T17:15:52.547Z,12.60
2017-10-10T17:18:20.005Z,12.50
2017-10-10T17:20:47.466Z,12.50
2017-10-10T17:23:14.927Z,12.60
2017-10-10T17:25:42.378Z,12.60
2017-10-10T17:28:09.854Z,12.60
2017-10-10T17:30:38.074Z,12.60
2017-10-10T17:33:05.533Z,12.60
2017-10-10T17:35:32.999Z,12.50
2017-10-10T17:38:00.450Z,12.60
2017-10-10T17:40:27.943Z,12.50
2017-10-10T17:42:55.382Z,12.40
2017-10-10T17:45:22.838Z,12.40
2017-10-10T17:47:50.401Z,12.40
2017-10-10T17:50:17.863Z,12.30
2017-10-10T17:52:45.309Z,12.20
2017-10-10T17:55:12.880Z,12.10
2017-10-10T17:57:40.321Z,11.90
2017-10-10T18:00:07.799Z,11.80
2017-10-10T18:02:35.241Z,11.70
2017-10-10T18:05:02.700Z,11.70
2017-10-10T18:07:30.145Z,11.80
2017-10-10T18:09:57.609Z,11.80
2017-10-10T18:12:25.057Z,11.80
2017-10-10T18:14:52.517Z,11.90
2017-10-10T18:17:19.988Z,11.80
2017-10-10T18:19:47.455Z,11.80
2017-10-10T18:22:14.897Z,11.80
2017-10-10T18:24:42.359Z,11.70
2017-10-10T18:27:10.781Z,11.70
2017-10-10T18:29:38.238Z,11.80
2017-10-10T18:32:05.760Z,11.80
2017-10-10T18:34:33.217Z,11.90
2017-10-10T18:37:01.434Z,12.00
2017-10-10T18:39:28.902Z,12.00
2017-10-10T18:41:56.399Z,12.00
2017-10-10T18:44:23.874Z,12.10
2017-10-10T18:46:51.334Z,12.00
2017-10-10T18:49:19.553Z,12.00
2017-10-10T18:51:47.037Z,12.00
2017-10-10T18:54:14.489Z,12.00
2017-10-10T18:56:41.956Z,12.00
2017-10-10T18:59:09.403Z,12.00
2017-10-10T19:01:36.870Z,12.10
2017-10-10T19:04:05.298Z,12.10
2017-10-10T19:06:32.754Z,12.00
2017-10-10T19:09:00.214Z,12.00
2017-10-10T19:11:27.725Z,12.10
2017-10-10T19:13:55.177Z,12.00
2017-10-10T19:16:22.629Z,12.00
2017-10-10T19:18:50.083Z,12.00
2017-10-10T19:21:17.541Z,12.00
2017-10-10T19:23:45.153Z,12.00
2017-10-10T19:26:14.081Z,12.10
2017-10-10T19:28:41.525Z,12.10
2017-10-10T19:31:08.988Z,12.10
2017-10-10T19:33:36.438Z,12.10
2017-10-10T19:36:03.910Z,12.20
2017-10-10T19:38:31.365Z,12.20
2017-10-10T19:40:58.817Z,12.20
2017-10-10T19:43:26.433Z,12.10
2017-10-10T19:45:54.680Z,11.90
2017-10-10T19:48:22.312Z,11.90
2017-10-10T19:50:49.761Z,11.90
2017-10-10T19:53:17.223Z,11.80
2017-10-10T19:55:44.681Z,11.80
2017-10-10T19:58:12.147Z,11.90
2017-10-10T20:00:39.627Z,11.90
2017-10-10T20:03:07.095Z,11.90
2017-10-10T20:05:34.593Z,11.80
2017-10-10T20:08:02.146Z,11.80
2017-10-10T20:10:29.663Z,11.70
2017-10-10T20:12:57.156Z,11.80
2017-10-10T20:15:25.409Z,11.70
2017-10-10T20:17:52.859Z,11.70
2017-10-10T20:20:20.314Z,11.70
2017-10-10T20:22:48.547Z,11.70
2017-10-10T20:25:16.003Z,11.70
2017-10-10T20:27:43.482Z,11.70
2017-10-10T20:30:10.943Z,11.70
2017-10-10T20:32:38.409Z,11.70
2017-10-10T20:35:05.865Z,11.80
2017-10-10T20:37:33.330Z,11.90
2017-10-10T20:40:00.789Z,12.00
2017-10-10T20:42:28.237Z,12.00
2017-10-10T20:44:55.698Z,12.10
2017-10-10T20:47:23.153Z,12.20
2017-10-10T20:49:50.617Z,12.20
2017-10-10T20:52:18.071Z,12.30
2017-10-10T20:54:45.530Z,12.40
2017-10-10T20:57:12.978Z,12.40
2017-10-10T20:59:40.437Z,12.30
2017-10-10T21:02:07.893Z,12.30
2017-10-10T21:04:35.345Z,12.40
2017-10-10T21:07:02.819Z,12.50
2017-10-10T21:09:31.050Z,12.50
2017-10-10T21:11:58.503Z,12.50
2017-10-10T21:14:26.102Z,12.50
2017-10-10T21:16:53.565Z,12.50
2017-10-10T21:19:21.822Z,12.50
2017-10-10T21:21:49.369Z,12.50
2017-10-10T21:24:16.828Z,12.50
2017-10-10T21:26:44.285Z,12.50
2017-10-10T21:29:11.741Z,12.50
2017-10-10T21:31:39.207Z,12.50
2017-10-10T21:34:06.666Z,12.50
2017-10-10T21:36:34.208Z,12.60
2017-10-10T21:39:01.667Z,12.60
2017-10-10T21:41:29.131Z,12.60
2017-10-10T21:43:56.583Z,12.60
2017-10-10T21:46:24.037Z,12.60
2017-10-10T21:48:51.484Z,12.60
2017-10-10T21:51:19.054Z,12.30
2017-10-10T21:53:46.509Z,12.10
2017-10-10T21:56:14.075Z,12.00
2017-10-10T21:58:41.629Z,11.90
2017-10-10T22:02:36.506Z,11.80
2017-10-10T22:05:03.967Z,11.80
2017-10-10T22:07:31.422Z,11.80
2017-10-10T22:09:58.865Z,11.90
2017-10-10T22:12:26.333Z,12.10
2017-10-10T22:14:53.795Z,12.40
2017-10-10T22:17:21.254Z,12.70
2017-10-10T22:19:48.705Z,12.80
2017-10-10T22:22:16.162Z,12.90
2017-10-10T22:24:43.619Z,12.80
2017-10-10T22:27:11.083Z,12.80
2017-10-10T22:29:38.529Z,12.90
2017-10-10T22:32:06.014Z,12.80
2017-10-10T22:34:33.577Z,12.70
2017-10-10T22:37:01.031Z,12.70
2017-10-10T22:39:28.589Z,12.80
2017-10-10T22:41:56.050Z,12.90
2017-10-10T22:44:23.502Z,12.90
2017-10-10T22:46:50.947Z,12.80
2017-10-10T22:49:18.405Z,12.80
2017-10-10T22:51:45.873Z,12.80
2017-10-10T22:54:13.326Z,12.90
2017-10-10T22:56:40.782Z,12.90
2017-10-10T22:59:08.236Z,12.80
2017-10-10T23:01:35.684Z,12.80
2017-10-10T23:04:03.154Z,12.90
2017-10-10T23:06:30.611Z,13.00
2017-10-10T23:08:58.071Z,13.00
2017-10-10T23:11:25.530Z,13.00
2017-10-10T23:13:52.992Z,13.00
2017-10-10T23:16:20.442Z,12.90
2017-10-10T23:18:47.908Z,13.00
2017-10-10T23:21:15.356Z,13.10
2017-10-10T23:23:42.812Z,13.20
2017-10-10T23:26:10.278Z,13.20
2017-10-10T23:28:37.733Z,13.20
2017-10-10T23:31:05.202Z,13.10
2017-10-10T23:33:32.661Z,13.20
2017-10-10T23:36:00.112Z,13.20
2017-10-10T23:38:27.585Z,13.20
2017-10-10T23:40:55.843Z,13.40
2017-10-10T23:43:23.368Z,13.30
2017-10-10T23:45:50.833Z,13.40
2017-10-10T23:48:18.290Z,13.30
2017-10-10T23:50:45.749Z,13.30
2017-10-10T23:53:13.201Z,13.40
2017-10-10T23:55:40.665Z,13.50
2017-10-10T23:58:08.123Z,13.50
